createdAt,value
2022-11-19T00:01:13.459Z,9.88
2022-11-19T00:03:42.282Z,9.97
2022-11-19T00:06:11.407Z,9.83
2022-11-19T00:08:39.392Z,9.87
2022-11-19T00:11:09.817Z,9.85
2022-11-19T00:13:39.177Z,9.77
2022-11-19T00:16:13.844Z,9.88
2022-11-19T00:18:41.385Z,9.77
2022-11-19T00:21:09.890Z,9.65
2022-11-19T00:23:38.232Z,9.61
2022-11-19T00:26:06.788Z,9.54
2022-11-19T00:28:34.434Z,9.51
2022-11-19T00:31:20.052Z,9.56
2022-11-19T00:33:50.612Z,9.53
2022-11-19T00:36:18.460Z,9.61
2022-11-19T00:38:45.822Z,9.65
2022-11-19T00:41:14.179Z,9.63
2022-11-19T00:43:47.448Z,9.58
2022-11-19T00:46:16.890Z,9.67
2022-11-19T00:48:45.378Z,9.64
2022-11-19T00:54:17.063Z,9.64
2022-11-19T00:56:44.786Z,9.63
2022-11-19T00:59:12.373Z,9.68
2022-11-19T01:01:40.293Z,9.78
2022-11-19T01:04:08.054Z,9.75
2022-11-19T01:06:35.720Z,9.62
2022-11-19T01:09:03.700Z,9.64
2022-11-19T01:11:32.431Z,9.65
2022-11-19T01:14:00.102Z,9.72
2022-11-19T01:16:29.553Z,9.64
2022-11-19T01:18:56.960Z,9.68
2022-11-19T01:21:25.881Z,9.69
2022-11-19T01:23:53.887Z,9.63
2022-11-19T01:26:21.683Z,9.61
2022-11-19T01:28:49.389Z,9.75
2022-11-19T01:31:18.374Z,9.80
2022-11-19T01:33:46.249Z,9.81
2022-11-19T01:36:18.502Z,9.70
2022-11-19T01:38:51.114Z,9.64
2022-11-19T01:41:19.811Z,9.64
2022-11-19T01:43:52.263Z,9.50
2022-11-19T01:46:24.146Z,9.48
2022-11-19T01:48:54.518Z,9.40
2022-11-19T01:51:24.843Z,9.44
2022-11-19T01:53:54.488Z,9.42
2022-11-19T01:56:22.868Z,9.47
2022-11-19T01:58:53.938Z,9.46
2022-11-19T02:01:22.495Z,9.44
2022-11-19T02:03:52.491Z,9.49
2022-11-19T02:06:19.852Z,9.56
2022-11-19T02:08:50.031Z,9.51
2022-11-19T02:11:26.348Z,9.45
2022-11-19T02:14:02.823Z,9.39
2022-11-19T02:16:40.152Z,9.39
2022-11-19T02:19:16.780Z,9.35
2022-11-19T02:22:04.896Z,9.35
2022-11-19T02:24:41.810Z,9.40
2022-11-19T02:27:35.265Z,9.40
2022-11-19T02:30:06.192Z,9.44
2022-11-19T02:32:54.178Z,9.49
2022-11-19T02:35:25.303Z,9.44
2022-11-19T02:37:59.738Z,9.50
2022-11-19T02:40:32.946Z,9.55
2022-11-19T02:43:03.087Z,9.51
2022-11-19T02:45:36.461Z,9.52
2022-11-19T02:48:09.388Z,9.53
2022-11-19T02:50:44.181Z,9.45
2022-11-19T02:53:12.047Z,9.39
2022-11-19T02:55:39.746Z,9.27
2022-11-19T02:58:38.370Z,9.24
2022-11-19T03:01:25.785Z,9.28
2022-11-19T03:04:12.514Z,9.25
2022-11-19T03:06:40.409Z,9.31
2022-11-19T03:09:08.473Z,9.26
2022-11-19T03:11:35.934Z,9.22
2022-11-19T03:14:36.938Z,9.23
2022-11-19T03:17:13.628Z,9.13
2022-11-19T03:19:46.109Z,9.02
2022-11-19T03:22:18.725Z,8.96
2022-11-19T03:24:50.850Z,8.94
2022-11-19T03:27:36.430Z,8.98
2022-11-19T03:30:05.739Z,8.90
2022-11-19T03:32:37.225Z,8.90
2022-11-19T03:35:07.948Z,8.88
2022-11-19T03:37:38.803Z,8.83
2022-11-19T03:40:07.919Z,8.83
2022-11-19T03:42:35.820Z,8.82
2022-11-19T03:45:05.155Z,8.74
2022-11-19T03:47:36.234Z,8.73
2022-11-19T03:50:23.077Z,8.74
2022-11-19T03:52:51.048Z,8.75
2022-11-19T03:55:18.482Z,8.66
2022-11-19T03:57:46.222Z,8.61
2022-11-19T04:00:14.117Z,8.59
2022-11-19T04:02:43.053Z,8.57
2022-11-19T04:05:10.444Z,8.38
2022-11-19T04:07:38.289Z,8.44
2022-11-19T04:10:06.364Z,8.46
2022-11-19T04:12:33.635Z,8.45
2022-11-19T04:15:00.978Z,8.45
2022-11-19T04:17:28.388Z,8.47
2022-11-19T04:19:55.720Z,8.46
2022-11-19T04:22:23.022Z,8.49
2022-11-19T04:24:50.365Z,8.46
2022-11-19T04:27:18.134Z,8.42
2022-11-19T04:29:45.870Z,8.45
2022-11-19T04:32:13.220Z,8.42
2022-11-19T04:34:41.493Z,8.44
2022-11-19T04:37:08.799Z,8.41
2022-11-19T04:39:36.082Z,8.41
2022-11-19T04:42:03.454Z,8.39
2022-11-19T04:44:30.861Z,8.16
2022-11-19T04:46:58.284Z,8.32
2022-11-19T04:49:26.392Z,8.26
2022-11-19T04:51:54.340Z,8.29
2022-11-19T04:54:21.683Z,8.40
2022-11-19T04:56:49.134Z,8.37
2022-11-19T04:59:17.058Z,8.44
2022-11-19T05:01:45.652Z,8.39
2022-11-19T05:04:13.041Z,8.35
2022-11-19T05:06:40.876Z,8.38
2022-11-19T05:09:08.548Z,8.34
2022-11-19T05:11:36.348Z,8.17
2022-11-19T05:14:04.157Z,8.22
2022-11-19T05:16:32.133Z,8.13
2022-11-19T05:18:59.422Z,8.13
2022-11-19T05:21:27.894Z,8.09
2022-11-19T05:23:55.540Z,8.18
2022-11-19T05:26:22.912Z,8.18
2022-11-19T05:28:50.239Z,8.20
2022-11-19T05:31:18.389Z,8.22
2022-11-19T05:33:45.846Z,8.32
2022-11-19T05:36:13.305Z,8.32
2022-11-19T05:38:41.260Z,8.25
2022-11-19T05:41:09.023Z,8.14
2022-11-19T05:43:36.366Z,8.12
2022-11-19T05:46:03.642Z,8.03
2022-11-19T05:48:31.877Z,8.09
2022-11-19T05:50:59.204Z,8.10
2022-11-19T05:53:26.761Z,8.08
2022-11-19T05:55:54.496Z,8.11
2022-11-19T05:58:21.775Z,8.07
2022-11-19T06:00:53.426Z,8.07
2022-11-19T06:03:20.782Z,8.05
2022-11-19T06:05:48.136Z,8.11
2022-11-19T06:08:15.894Z,8.02
2022-11-19T06:10:43.331Z,8.02
2022-11-19T06:13:10.729Z,8.00
2022-11-19T06:15:38.141Z,7.94
2022-11-19T06:18:05.934Z,7.98
2022-11-19T06:20:33.326Z,7.91
2022-11-19T06:23:00.652Z,7.92
2022-11-19T06:25:28.349Z,7.85
2022-11-19T06:27:55.643Z,8.02
2022-11-19T06:30:22.905Z,7.97
2022-11-19T06:32:50.132Z,8.02
2022-11-19T06:35:17.863Z,8.08
2022-11-19T06:37:45.187Z,8.21
2022-11-19T06:40:13.163Z,8.37
2022-11-19T06:42:41.198Z,8.38
2022-11-19T06:45:12.728Z,8.28
2022-11-19T06:47:41.054Z,8.36
2022-11-19T06:50:09.434Z,8.36
2022-11-19T06:52:36.828Z,8.53
2022-11-19T06:55:04.904Z,8.52
2022-11-19T06:57:32.312Z,8.65
2022-11-19T06:59:59.641Z,8.76
2022-11-19T07:02:27.560Z,8.72
2022-11-19T07:04:55.022Z,8.74
2022-11-19T07:07:22.691Z,8.87
2022-11-19T07:09:50.219Z,8.95
2022-11-19T07:12:17.672Z,8.94
2022-11-19T07:14:45.071Z,8.89
2022-11-19T07:17:12.475Z,8.88
2022-11-19T07:19:39.793Z,8.74
2022-11-19T07:22:07.211Z,8.70
2022-11-19T07:24:35.011Z,8.85
2022-11-19T07:27:02.421Z,8.92
2022-11-19T07:29:29.763Z,8.96
2022-11-19T07:31:57.369Z,8.95
2022-11-19T07:34:24.689Z,9.02
2022-11-19T07:36:52.439Z,9.21
2022-11-19T07:39:20.319Z,8.88
2022-11-19T07:42:06.751Z,8.99
2022-11-19T07:44:34.229Z,9.06
2022-11-19T07:47:02.567Z,9.08
2022-11-19T07:49:30.364Z,9.21
2022-11-19T07:51:57.702Z,9.42
2022-11-19T07:54:25.306Z,9.51
2022-11-19T07:56:53.042Z,9.80
2022-11-19T07:59:20.702Z,9.85
2022-11-19T08:01:49.099Z,9.93
2022-11-19T08:04:16.927Z,10.00
2022-11-19T08:06:44.516Z,10.03
2022-11-19T08:09:12.112Z,10.24
2022-11-19T08:11:40.560Z,10.49
2022-11-19T08:14:09.282Z,10.80
2022-11-19T08:16:55.261Z,11.26
2022-11-19T08:19:23.411Z,11.73
2022-11-19T08:21:51.284Z,11.94
2022-11-19T08:24:20.303Z,12.01
2022-11-19T08:26:48.282Z,12.21
2022-11-19T08:29:17.041Z,12.14
2022-11-19T08:31:45.902Z,11.83
2022-11-19T08:34:13.252Z,11.70
2022-11-19T08:36:41.687Z,11.72
2022-11-19T08:39:09.807Z,12.16
2022-11-19T08:41:55.885Z,12.72
2022-11-19T08:44:24.160Z,13.13
2022-11-19T08:46:51.437Z,13.08
2022-11-19T08:49:18.819Z,13.90
2022-11-19T08:51:46.156Z,13.52
2022-11-19T08:54:13.875Z,13.44
2022-11-19T08:56:41.300Z,13.36
2022-11-19T08:59:08.729Z,13.16
2022-11-19T09:01:36.380Z,12.85
2022-11-19T09:04:03.886Z,12.64
2022-11-19T09:06:34.227Z,13.23
2022-11-19T09:09:02.218Z,13.93
2022-11-19T09:11:30.445Z,15.02
2022-11-19T09:13:58.228Z,14.08
2022-11-19T09:16:25.967Z,14.49
2022-11-19T09:18:54.237Z,14.92
2022-11-19T09:21:21.685Z,16.47
2022-11-19T09:23:49.002Z,16.75
2022-11-19T09:26:18.156Z,17.48
2022-11-19T09:28:46.505Z,17.34
2022-11-19T09:31:15.265Z,16.81
2022-11-19T09:33:43.931Z,18.20
2022-11-19T09:36:11.589Z,18.44
2022-11-19T09:38:40.888Z,18.26
2022-11-19T09:41:14.121Z,18.63
2022-11-19T09:43:50.314Z,18.78
2022-11-19T09:46:23.994Z,19.02
2022-11-19T09:48:53.475Z,19.42
2022-11-19T09:51:29.208Z,19.08
2022-11-19T09:54:03.700Z,19.65
2022-11-19T09:56:34.817Z,19.62
2022-11-19T09:59:04.744Z,19.24
2022-11-19T10:01:40.270Z,18.78
2022-11-19T10:04:10.990Z,18.76
2022-11-19T10:06:50.962Z,18.95
2022-11-19T10:09:36.999Z,18.84
2022-11-19T10:12:13.154Z,18.62
2022-11-19T10:14:49.624Z,17.84
2022-11-19T10:17:36.155Z,17.66
2022-11-19T10:20:03.542Z,17.33
2022-11-19T10:22:39.317Z,16.82
2022-11-19T10:25:17.256Z,16.51
2022-11-19T10:27:50.202Z,16.87
2022-11-19T10:30:21.062Z,16.14
2022-11-19T10:33:00.137Z,16.75
2022-11-19T10:35:30.733Z,16.62
2022-11-19T10:38:00.573Z,16.33
2022-11-19T10:40:49.454Z,15.83
2022-11-19T10:43:23.649Z,17.17
2022-11-19T10:45:51.365Z,17.56
2022-11-19T10:48:18.629Z,17.29
2022-11-19T10:50:45.982Z,17.49
2022-11-19T10:53:23.631Z,17.66
2022-11-19T10:55:54.649Z,17.43
2022-11-19T10:58:26.713Z,17.33
2022-11-19T11:00:55.308Z,17.39
2022-11-19T11:03:54.952Z,18.05
2022-11-19T11:06:22.259Z,17.60
2022-11-19T11:08:54.500Z,17.98
2022-11-19T11:11:46.650Z,17.92
2022-11-19T11:14:33.811Z,17.76
2022-11-19T11:17:01.983Z,17.56
2022-11-19T11:19:30.428Z,17.58
2022-11-19T11:21:58.319Z,17.19
2022-11-19T11:24:36.434Z,16.91
2022-11-19T11:27:21.118Z,17.34
2022-11-19T11:29:48.495Z,17.34
2022-11-19T11:32:33.979Z,17.13
2022-11-19T11:35:06.914Z,17.51
2022-11-19T11:37:35.633Z,16.65
2022-11-19T11:40:03.785Z,16.67
2022-11-19T11:42:31.130Z,16.76
2022-11-19T11:45:00.058Z,16.48
2022-11-19T11:47:37.961Z,15.96
2022-11-19T11:50:14.454Z,15.96
2022-11-19T11:52:44.869Z,15.50
2022-11-19T11:55:24.518Z,16.09
2022-11-19T11:58:02.384Z,15.87
2022-11-19T12:00:33.285Z,15.79
2022-11-19T12:03:02.548Z,15.99
2022-11-19T12:05:59.867Z,16.45
2022-11-19T12:08:27.379Z,16.84
2022-11-19T12:11:02.931Z,17.29
2022-11-19T12:13:49.147Z,17.39
2022-11-19T12:16:25.238Z,17.30
2022-11-19T12:18:55.386Z,17.43
2022-11-19T12:21:26.402Z,17.01
2022-11-19T12:24:17.573Z,16.84
2022-11-19T12:26:54.508Z,16.92
2022-11-19T12:29:33.654Z,16.95
2022-11-19T12:32:01.379Z,17.04
2022-11-19T12:34:32.005Z,16.53
2022-11-19T12:37:18.315Z,16.26
2022-11-19T12:39:47.196Z,16.71
2022-11-19T12:42:33.160Z,16.42
2022-11-19T12:45:24.105Z,16.52
2022-11-19T12:47:58.075Z,16.34
2022-11-19T12:50:46.183Z,16.46
2022-11-19T12:53:19.366Z,16.41
2022-11-19T12:55:53.199Z,16.48
2022-11-19T12:58:33.165Z,16.24
2022-11-19T13:01:04.410Z,16.39
2022-11-19T13:03:31.785Z,16.13
2022-11-19T13:06:07.085Z,15.42
2022-11-19T13:08:44.027Z,15.71
2022-11-19T13:11:11.776Z,15.94
2022-11-19T13:13:43.026Z,15.81
2022-11-19T13:16:12.599Z,16.10
2022-11-19T13:18:45.396Z,15.94
2022-11-19T13:21:25.949Z,15.97
2022-11-19T13:23:54.325Z,15.80
2022-11-19T13:26:30.358Z,15.59
2022-11-19T13:29:18.328Z,15.64
2022-11-19T13:31:50.546Z,15.48
2022-11-19T13:34:21.382Z,15.70
2022-11-19T13:37:15.039Z,15.72
2022-11-19T13:39:45.443Z,15.85
2022-11-19T13:42:32.870Z,15.77
2022-11-19T13:45:00.409Z,15.61
2022-11-19T13:47:31.068Z,15.68
2022-11-19T13:50:01.124Z,15.64
2022-11-19T13:52:28.503Z,15.63
2022-11-19T13:54:57.252Z,15.63
2022-11-19T13:57:37.717Z,15.50
2022-11-19T14:00:06.706Z,15.61
2022-11-19T14:02:59.079Z,15.69
2022-11-19T14:05:32.351Z,15.56
2022-11-19T14:08:05.953Z,15.45
2022-11-19T14:10:42.316Z,15.28
2022-11-19T14:13:28.425Z,15.27
2022-11-19T14:16:23.404Z,15.21
2022-11-19T14:19:11.682Z,15.18
2022-11-19T14:21:58.338Z,15.18
2022-11-19T14:24:44.622Z,15.21
2022-11-19T14:27:17.866Z,15.08
2022-11-19T14:29:45.337Z,15.04
2022-11-19T14:32:13.015Z,14.94
2022-11-19T14:34:59.328Z,14.98
2022-11-19T14:37:29.859Z,14.87
2022-11-19T14:40:00.566Z,14.79
2022-11-19T14:42:28.371Z,14.81
2022-11-19T14:45:01.511Z,14.85
2022-11-19T14:47:33.458Z,14.80
2022-11-19T14:50:04.745Z,14.76
2022-11-19T14:52:34.287Z,14.70
2022-11-19T14:55:04.686Z,14.66
2022-11-19T14:57:31.983Z,14.53
2022-11-19T15:00:01.954Z,14.49
2022-11-19T15:02:35.449Z,14.46
2022-11-19T15:05:35.770Z,14.36
2022-11-19T15:08:18.558Z,14.32
2022-11-19T15:10:48.918Z,14.22
2022-11-19T15:13:21.843Z,14.07
2022-11-19T15:15:50.566Z,14.11
2022-11-19T15:18:20.909Z,14.02
2022-11-19T15:20:54.326Z,13.91
2022-11-19T15:23:22.044Z,13.90
2022-11-19T15:25:49.282Z,13.93
2022-11-19T15:28:28.246Z,13.90
2022-11-19T15:31:03.731Z,13.84
2022-11-19T15:33:45.078Z,13.65
2022-11-19T15:36:12.507Z,13.73
2022-11-19T15:38:47.234Z,13.70
2022-11-19T15:41:15.845Z,13.67
2022-11-19T15:43:48.992Z,13.59
2022-11-19T15:46:16.454Z,13.53
2022-11-19T15:49:03.923Z,13.49
2022-11-19T15:51:34.453Z,13.51
2022-11-19T15:54:03.397Z,13.43
2022-11-19T15:56:39.248Z,13.33
2022-11-19T15:59:08.116Z,13.25
2022-11-19T16:01:36.417Z,13.22
2022-11-19T16:04:06.788Z,13.11
2022-11-19T16:06:36.230Z,12.93
2022-11-19T16:09:04.995Z,12.95
2022-11-19T16:11:53.149Z,12.97
2022-11-19T16:14:48.615Z,12.94
2022-11-19T16:17:43.565Z,12.95
2022-11-19T16:21:08.685Z,12.93
2022-11-19T16:23:56.674Z,12.92
2022-11-19T16:26:24.273Z,12.88
2022-11-19T16:28:52.409Z,12.84
2022-11-19T16:31:20.593Z,12.83
2022-11-19T16:33:55.271Z,12.73
2022-11-19T16:36:23.533Z,12.75
2022-11-19T16:38:53.538Z,12.83
2022-11-19T16:41:43.053Z,12.71
2022-11-19T16:44:21.273Z,12.69
2022-11-19T16:46:50.227Z,12.75
2022-11-19T16:49:32.122Z,12.68
2022-11-19T16:52:00.297Z,12.65
2022-11-19T16:54:48.499Z,12.63
2022-11-19T16:57:24.254Z,12.65
2022-11-19T17:00:00.286Z,12.60
2022-11-19T17:02:36.255Z,12.59
2022-11-19T17:05:15.926Z,12.61
2022-11-19T17:07:49.642Z,12.65
2022-11-19T17:10:31.775Z,12.60
2022-11-19T17:13:04.596Z,12.60
2022-11-19T17:15:33.822Z,12.66
2022-11-19T17:18:13.795Z,12.56
2022-11-19T17:20:45.172Z,12.49
2022-11-19T17:23:18.414Z,12.47
2022-11-19T17:25:52.617Z,12.53
2022-11-19T17:28:26.730Z,12.52
2022-11-19T17:30:55.393Z,12.48
2022-11-19T17:33:24.477Z,12.58
2022-11-19T17:35:52.650Z,12.61
2022-11-19T17:38:24.314Z,12.47
2022-11-19T17:41:01.408Z,12.50
2022-11-19T17:43:53.277Z,12.48
2022-11-19T17:46:25.336Z,12.45
2022-11-19T17:48:53.528Z,12.39
2022-11-19T17:51:23.757Z,12.43
2022-11-19T17:53:52.374Z,12.36
2022-11-19T17:56:24.731Z,12.37
2022-11-19T17:58:52.752Z,12.39
2022-11-19T18:01:20.614Z,12.25
2022-11-19T18:03:48.409Z,12.26
2022-11-19T18:06:17.910Z,12.33
2022-11-19T18:08:46.487Z,12.25
2022-11-19T18:11:25.590Z,12.21
2022-11-19T18:13:57.263Z,12.27
2022-11-19T18:16:28.228Z,12.23
2022-11-19T18:18:55.928Z,12.19
2022-11-19T18:21:24.109Z,12.22
2022-11-19T18:23:52.198Z,12.23
2022-11-19T18:26:22.547Z,12.19
2022-11-19T18:28:50.612Z,12.16
2022-11-19T18:31:22.298Z,12.13
2022-11-19T18:33:50.254Z,12.12
2022-11-19T18:36:18.927Z,12.13
2022-11-19T18:38:46.799Z,12.17
2022-11-19T18:41:15.874Z,12.23
2022-11-19T18:44:02.509Z,12.21
2022-11-19T18:46:30.695Z,12.20
2022-11-19T18:48:58.432Z,12.21
2022-11-19T18:51:29.332Z,12.19
2022-11-19T18:53:57.307Z,12.21
2022-11-19T18:56:25.052Z,12.25
2022-11-19T18:58:52.980Z,12.25
2022-11-19T19:01:23.662Z,12.34
2022-11-19T19:03:52.501Z,12.32
2022-11-19T19:06:23.192Z,12.29
2022-11-19T19:08:50.974Z,12.23
2022-11-19T19:11:37.186Z,12.26
2022-11-19T19:14:05.299Z,12.22
2022-11-19T19:16:34.319Z,12.32
2022-11-19T19:19:03.452Z,12.33
2022-11-19T19:21:31.434Z,12.26
2022-11-19T19:23:59.108Z,12.34
2022-11-19T19:26:26.782Z,12.37
2022-11-19T19:28:55.265Z,12.36
2022-11-19T19:31:24.115Z,12.32
2022-11-19T19:33:52.750Z,12.26
2022-11-19T19:36:22.008Z,12.19
2022-11-19T19:38:50.643Z,12.23
2022-11-19T19:41:21.143Z,12.21
2022-11-19T19:43:49.676Z,12.24
2022-11-19T19:46:20.888Z,12.16
2022-11-19T19:48:51.774Z,12.17
2022-11-19T19:51:21.209Z,12.19
2022-11-19T19:53:49.698Z,12.15
2022-11-19T19:56:29.480Z,12.09
2022-11-19T19:58:57.964Z,12.11
2022-11-19T20:01:33.968Z,12.12
2022-11-19T20:04:04.410Z,12.19
2022-11-19T20:06:33.124Z,12.16
2022-11-19T20:09:06.880Z,12.05
2022-11-19T20:11:36.648Z,12.07
2022-11-19T20:14:05.467Z,12.13
2022-11-19T20:16:33.551Z,11.98
2022-11-19T20:19:01.741Z,12.01
2022-11-19T20:21:33.772Z,11.95
2022-11-19T20:24:01.343Z,11.94
2022-11-19T20:26:31.193Z,11.85
2022-11-19T20:29:01.372Z,11.75
2022-11-19T20:31:30.147Z,11.79
2022-11-19T20:34:00.315Z,11.67
2022-11-19T20:36:29.868Z,11.67
2022-11-19T20:39:00.449Z,11.49
2022-11-19T20:41:47.019Z,11.45
2022-11-19T20:44:23.210Z,11.40
2022-11-19T20:46:59.040Z,11.41
2022-11-19T20:49:30.086Z,11.38
2022-11-19T20:51:58.247Z,11.40
2022-11-19T20:54:26.626Z,11.38
2022-11-19T20:56:55.518Z,11.33
2022-11-19T20:59:26.126Z,11.28
2022-11-19T21:01:55.792Z,11.26
2022-11-19T21:04:25.570Z,11.23
2022-11-19T21:06:56.858Z,11.20
2022-11-19T21:09:25.404Z,11.21
2022-11-19T21:11:53.671Z,11.24
2022-11-19T21:14:21.832Z,11.20
2022-11-19T21:16:49.403Z,11.23
2022-11-19T21:19:17.119Z,11.32
2022-11-19T21:21:45.687Z,11.27
2022-11-19T21:24:13.810Z,11.20
2022-11-19T21:26:41.612Z,11.11
2022-11-19T21:29:09.695Z,11.10
2022-11-19T21:31:45.695Z,11.11
2022-11-19T21:34:18.347Z,11.06
2022-11-19T21:36:47.599Z,10.97
2022-11-19T21:39:17.265Z,10.91
2022-11-19T21:41:45.005Z,11.00
2022-11-19T21:44:16.801Z,10.99
2022-11-19T21:46:49.425Z,10.85
2022-11-19T21:49:17.516Z,10.68
2022-11-19T21:51:45.654Z,10.56
2022-11-19T21:54:13.651Z,10.57
2022-11-19T21:56:41.790Z,10.47
2022-11-19T21:59:09.438Z,10.36
2022-11-19T22:01:37.309Z,10.37
2022-11-19T22:04:05.286Z,10.34
2022-11-19T22:06:33.824Z,10.28
2022-11-19T22:09:01.949Z,10.23
2022-11-19T22:11:29.713Z,10.26
2022-11-19T22:14:06.076Z,10.03
2022-11-19T22:16:36.235Z,9.98
2022-11-19T22:19:05.717Z,10.06
2022-11-19T22:21:34.375Z,10.06
2022-11-19T22:24:02.253Z,10.08
2022-11-19T22:26:29.830Z,10.05
2022-11-19T22:28:57.464Z,9.99
2022-11-19T22:31:25.723Z,10.02
2022-11-19T22:33:53.971Z,10.02
2022-11-19T22:36:22.994Z,10.05
2022-11-19T22:38:52.342Z,9.94
2022-11-19T22:41:21.736Z,9.96
2022-11-19T22:43:50.888Z,10.01
2022-11-19T22:46:19.023Z,9.93
2022-11-19T22:48:46.807Z,10.02
2022-11-19T22:51:23.531Z,10.07
2022-11-19T22:53:52.740Z,10.01
2022-11-19T22:56:26.065Z,10.01
2022-11-19T22:58:54.882Z,9.85
2022-11-19T23:01:28.493Z,9.89
2022-11-19T23:03:58.265Z,9.89
2022-11-19T23:06:26.636Z,9.85
2022-11-19T23:08:54.227Z,9.85
2022-11-19T23:11:41.783Z,9.85
2022-11-19T23:14:13.449Z,9.84
2022-11-19T23:16:41.463Z,9.83
2022-11-19T23:19:10.858Z,9.69
2022-11-19T23:21:39.231Z,9.76
2022-11-19T23:24:07.933Z,9.78
2022-11-19T23:26:35.988Z,9.83
2022-11-19T23:29:04.422Z,9.84
2022-11-19T23:31:37.838Z,9.83
2022-11-19T23:34:05.734Z,9.76
2022-11-19T23:36:36.620Z,9.66
2022-11-19T23:39:05.561Z,9.62
2022-11-19T23:41:34.571Z,9.54
2022-11-19T23:44:02.535Z,9.48
2022-11-19T23:46:32.916Z,9.49
2022-11-19T23:49:01.890Z,9.56
2022-11-19T23:51:35.410Z,9.41
2022-11-19T23:54:04.507Z,9.54
2022-11-19T23:56:35.929Z,9.46
2022-11-19T23:59:05.232Z,9.36
